Peoria, IL

8:01 AM CDT on August 30, 2015 (GMT -0500)
Pekin Avenue | | Change Station
CLOSE
Current Station
Personal Weather Station
Location: East Peoria, IL
Elevation: 659 ft
Nearby Weather Stations

Elev 659 ft 40.66 °N, 89.58 °W | Updated 9 minutes ago

Fog
Fog
67.5 °F
Feels Like 67.5 °F
N
0.0
Wind Variable Wind from NE

Today
High -- | Low -- °F
--% Chance of Precip.
Yesterday
High -- | Low -- °F
Precip. -- in
6:23 AM 7:34 PM
Full, 99% visible
Pressure 30.05 in
Visibility 0.2 miles
Clouds
Dew Point 67 °F
Humidity 99%
Rainfall 0.00 in
Snow Depth Not available.
UV Not available.
Pollen 10.30 out of 12
Air Quality Not available.
Flu Activity Not available.
METAR KPIA 301254Z 04004KT M1/4SM R13/1400V2000FT FG VV002 21/19 A3006 RMK AO2 SLP176 T02060194
Pressure 30.05 in
Visibility 0.2 miles
Clouds
Dew Point 67 °F
Humidity 99%
Rainfall 0.00 in
Snow Depth Not available.
UV Not available.
Pollen 10.30 out of 12
Air Quality Not available.
Flu Activity Not available.
METAR KPIA 301254Z 04004KT M1/4SM R13/1400V2000FT FG VV002 21/19 A3006 RMK AO2 SLP176 T02060194

10-Day Weather Forecast

×

Almanac

Astronomy

Aug. 30, 2015 Rise Set
Actual Time
Civil Twilight
Nautical Twilight
Astronomical Twilight
Moon
Length of Visible Light
Length of Day
Tomorrow will be .
, % of the Moon is Illuminated

Today's Extremes

State Highs State Lows

Community

WunderPhotos

Upload Photos

1,850,945 photos uploaded!

WunderBlogs® & News

Nearby

Air Quality

  Air Quality AQ Index Pollutant
Not available.

Snow Depth

Station Depth Elevation

Earthquake Activity

City Distance Mag. Time & Date
Minimum magnitude displayed is 2.5.

Coastal Water Temperatures

Place Temperature

Stations

Nearby Weather Stations

Station Location Temp. Windchill Dew Point Humidity Wind Precip. Elev Updated Type